sensor_id;sensor_type;location;lat;lon;timestamp;pressure;altitude;pressure_sealevel;temperature;humidity
21960;BME280;11144;43.030;25.108;2023-10-31T00:00:50;99507.91;;;9.51;70.57
21960;BME280;11144;43.030;25.108;2023-10-31T00:02:24;99502.03;;;9.49;70.68
21960;BME280;11144;43.030;25.108;2023-10-31T00:03:57;99509.59;;;9.44;70.46
21960;BME280;11144;43.030;25.108;2023-10-31T00:05:30;99509.97;;;9.33;70.37
21960;BME280;11144;43.030;25.108;2023-10-31T00:07:03;99506.84;;;9.30;70.50
21960;BME280;11144;43.030;25.108;2023-10-31T00:08:36;99503.59;;;9.28;70.64
21960;BME280;11144;43.030;25.108;2023-10-31T00:10:09;99503.78;;;9.26;70.99
21960;BME280;11144;43.030;25.108;2023-10-31T00:11:42;99507.72;;;9.22;70.93
21960;BME280;11144;43.030;25.108;2023-10-31T00:13:16;99507.06;;;9.20;70.92
21960;BME280;11144;43.030;25.108;2023-10-31T00:14:48;99503.00;;;9.18;70.99
21960;BME280;11144;43.030;25.108;2023-10-31T00:16:21;99496.47;;;9.14;71.21
21960;BME280;11144;43.030;25.108;2023-10-31T00:17:57;99494.34;;;9.09;70.81
21960;BME280;11144;43.030;25.108;2023-10-31T00:19:29;99488.28;;;9.09;71.03
21960;BME280;11144;43.030;25.108;2023-10-31T00:21:03;99478.84;;;9.00;71.14
21960;BME280;11144;43.030;25.108;2023-10-31T00:22:36;99492.38;;;9.03;71.29
21960;BME280;11144;43.030;25.108;2023-10-31T00:24:09;99489.28;;;9.00;71.24
21960;BME280;11144;43.030;25.108;2023-10-31T00:25:41;99488.47;;;8.99;71.44
21960;BME280;11144;43.030;25.108;2023-10-31T00:27:15;99485.22;;;8.97;71.12
21960;BME280;11144;43.030;25.108;2023-10-31T00:28:47;99484.25;;;8.90;71.14
21960;BME280;11144;43.030;25.108;2023-10-31T00:30:21;99475.44;;;8.91;71.33
21960;BME280;11144;43.030;25.108;2023-10-31T00:31:53;99486.72;;;8.92;71.51
21960;BME280;11144;43.030;25.108;2023-10-31T00:33:28;99478.03;;;8.91;71.54
21960;BME280;11144;43.030;25.108;2023-10-31T00:35:00;99477.41;;;8.89;71.65
21960;BME280;11144;43.030;25.108;2023-10-31T00:36:34;99478.03;;;8.83;71.61
21960;BME280;11144;43.030;25.108;2023-10-31T00:38:06;99476.75;;;8.79;71.45
21960;BME280;11144;43.030;25.108;2023-10-31T00:39:39;99474.31;;;8.77;71.80
21960;BME280;11144;43.030;25.108;2023-10-31T00:41:12;99463.03;;;8.77;71.44
21960;BME280;11144;43.030;25.108;2023-10-31T00:42:45;99469.72;;;8.79;71.73
21960;BME280;11144;43.030;25.108;2023-10-31T00:44:18;99470.56;;;8.80;71.72
21960;BME280;11144;43.030;25.108;2023-10-31T00:45:52;99470.69;;;8.78;71.67
21960;BME280;11144;43.030;25.108;2023-10-31T00:47:26;99468.56;;;8.74;71.63
21960;BME280;11144;43.030;25.108;2023-10-31T00:49:00;99457.19;;;8.67;71.76
21960;BME280;11144;43.030;25.108;2023-10-31T00:50:33;99465.81;;;8.75;71.49
21960;BME280;11144;43.030;25.108;2023-10-31T00:52:06;99470.03;;;8.76;71.74
21960;BME280;11144;43.030;25.108;2023-10-31T00:53:39;99460.59;;;8.75;71.56
21960;BME280;11144;43.030;25.108;2023-10-31T00:55:12;99464.34;;;8.73;71.30
21960;BME280;11144;43.030;25.108;2023-10-31T00:56:45;99459.63;;;8.68;71.30
21960;BME280;11144;43.030;25.108;2023-10-31T00:58:18;99454.22;;;8.62;71.36
21960;BME280;11144;43.030;25.108;2023-10-31T00:59:50;99458.97;;;8.66;71.65
21960;BME280;11144;43.030;25.108;2023-10-31T01:01:24;99458.16;;;8.66;71.53
21960;BME280;11144;43.030;25.108;2023-10-31T01:02:56;99454.22;;;8.62;71.68
21960;BME280;11144;43.030;25.108;2023-10-31T01:04:31;99456.53;;;8.57;71.66
21960;BME280;11144;43.030;25.108;2023-10-31T01:06:04;99452.28;;;8.48;71.94
21960;BME280;11144;43.030;25.108;2023-10-31T01:07:37;99453.25;;;8.39;72.03
21960;BME280;11144;43.030;25.108;2023-10-31T01:09:09;99446.09;;;8.33;72.03
21960;BME280;11144;43.030;25.108;2023-10-31T01:10:44;99451.66;;;8.38;72.09
21960;BME280;11144;43.030;25.108;2023-10-31T01:12:17;99455.22;;;8.37;72.19
21960;BME280;11144;43.030;25.108;2023-10-31T01:13:51;99447.56;;;8.35;72.18
21960;BME280;11144;43.030;25.108;2023-10-31T01:15:23;99451.13;;;8.34;72.28
21960;BME280;11144;43.030;25.108;2023-10-31T01:16:56;99450.34;;;8.34;72.31
21960;BME280;11144;43.030;25.108;2023-10-31T01:18:29;99453.94;;;8.33;72.04
21960;BME280;11144;43.030;25.108;2023-10-31T01:20:05;99452.97;;;8.34;71.97
21960;BME280;11144;43.030;25.108;2023-10-31T01:21:38;99446.44;;;8.30;72.06
21960;BME280;11144;43.030;25.108;2023-10-31T01:23:11;99444.78;;;8.29;71.91
21960;BME280;11144;43.030;25.108;2023-10-31T01:24:43;99437.91;;;8.28;71.98
21960;BME280;11144;43.030;25.108;2023-10-31T01:26:17;99441.69;;;8.33;72.00
21960;BME280;11144;43.030;25.108;2023-10-31T01:27:49;99443.47;;;8.33;72.13
21960;BME280;11144;43.030;25.108;2023-10-31T01:29:22;99441.22;;;8.30;71.84
21960;BME280;11144;43.030;25.108;2023-10-31T01:30:56;99445.44;;;8.31;72.01
21960;BME280;11144;43.030;25.108;2023-10-31T01:32:28;99434.16;;;8.30;nan
21960;BME280;11144;43.030;25.108;2023-10-31T01:34:02;99447.22;;;8.30;72.10
21960;BME280;11144;43.030;25.108;2023-10-31T01:35:36;99445.09;;;8.26;72.27
21960;BME280;11144;43.030;25.108;2023-10-31T01:37:09;99442.66;;;8.16;72.47
21960;BME280;11144;43.030;25.108;2023-10-31T01:38:41;99445.41;;;8.06;72.67
21960;BME280;11144;43.030;25.108;2023-10-31T01:40:16;99441.31;;;7.96;72.68
21960;BME280;11144;43.030;25.108;2023-10-31T01:41:48;99439.19;;;7.99;72.79
21960;BME280;11144;43.030;25.108;2023-10-31T01:43:32;99435.28;;;7.95;73.39
21960;BME280;11144;43.030;25.108;2023-10-31T01:45:06;99436.09;;;7.96;72.69
21960;BME280;11144;43.030;25.108;2023-10-31T01:46:39;99438.84;;;7.94;72.73
21960;BME280;11144;43.030;25.108;2023-10-31T01:48:12;99439.34;;;7.90;72.77
21960;BME280;11144;43.030;25.108;2023-10-31T01:49:45;99437.22;;;7.85;73.01
21960;BME280;11144;43.030;25.108;2023-10-31T01:51:19;99427.09;;;7.74;73.12
21960;BME280;11144;43.030;25.108;2023-10-31T01:52:53;99437.19;;;7.77;72.99
21960;BME280;11144;43.030;25.108;2023-10-31T01:54:26;99444.38;;;7.75;73.13
21960;BME280;11144;43.030;25.108;2023-10-31T01:56:00;99430.16;;;7.62;73.26
21960;BME280;11144;43.030;25.108;2023-10-31T01:57:34;99434.88;;;7.66;73.41
21960;BME280;11144;43.030;25.108;2023-10-31T01:59:07;99442.06;;;7.64;73.54
21960;BME280;11144;43.030;25.108;2023-10-31T02:00:41;99444.84;;;7.63;73.25
21960;BME280;11144;43.030;25.108;2023-10-31T02:02:15;99439.47;;;7.64;73.10
21960;BME280;11144;43.030;25.108;2023-10-31T02:03:48;99440.13;;;7.66;73.13
21960;BME280;11144;43.030;25.108;2023-10-31T02:05:21;99432.63;;;7.63;73.09
21960;BME280;11144;43.030;25.108;2023-10-31T02:06:55;99439.28;;;7.66;72.99
21960;BME280;11144;43.030;25.108;2023-10-31T02:08:28;99444.84;;;7.63;73.13
21960;BME280;11144;43.030;25.108;2023-10-31T02:10:02;99441.09;;;7.65;73.09
21960;BME280;11144;43.030;25.108;2023-10-31T02:11:34;99445.50;;;7.65;73.05
21960;BME280;11144;43.030;25.108;2023-10-31T02:13:10;99444.03;;;7.62;72.91
21960;BME280;11144;43.030;25.108;2023-10-31T02:14:43;99439.47;;;7.64;72.87
21960;BME280;11144;43.030;25.108;2023-10-31T02:16:16;99437.66;;;7.65;72.82
21960;BME280;11144;43.030;25.108;2023-10-31T02:17:49;99438.50;;;7.65;72.82
21960;BME280;11144;43.030;25.108;2023-10-31T02:19:23;99439.47;;;7.64;73.02
21960;BME280;11144;43.030;25.108;2023-10-31T02:20:55;99440.13;;;7.66;72.82
21960;BME280;11144;43.030;25.108;2023-10-31T02:22:30;99442.72;;;7.66;72.98
21960;BME280;11144;43.030;25.108;2023-10-31T02:24:03;99432.75;;;7.62;73.10
21960;BME280;11144;43.030;25.108;2023-10-31T02:25:36;99434.88;;;7.66;73.02
21960;BME280;11144;43.030;25.108;2023-10-31T02:27:09;99430.81;;;7.64;73.19
21960;BME280;11144;43.030;25.108;2023-10-31T02:28:42;99440.75;;;7.60;73.08
21960;BME280;11144;43.030;25.108;2023-10-31T02:30:16;99425.88;;;7.53;73.19
21960;BME280;11144;43.030;25.108;2023-10-31T02:31:49;99431.56;;;7.48;73.07
21960;BME280;11144;43.030;25.108;2023-10-31T02:33:22;99435.19;;;7.47;73.10
21960;BME280;11144;43.030;25.108;2023-10-31T02:34:54;99432.41;;;7.49;73.25
21960;BME280;11144;43.030;25.108;2023-10-31T02:36:29;99434.84;;;7.50;73.54
21960;BME280;11144;43.030;25.108;2023-10-31T02:38:02;99438.44;;;7.49;73.32
21960;BME280;11144;43.030;25.108;2023-10-31T02:39:37;99420.97;;;7.41;73.30
21960;BME280;11144;43.030;25.108;2023-10-31T02:41:09;99428.66;;;7.43;73.41
21960;BME280;11144;43.030;25.108;2023-10-31T02:42:42;99431.75;;;7.47;73.45
21960;BME280;11144;43.030;25.108;2023-10-31T02:44:15;99437.13;;;7.45;73.58
21960;BME280;11144;43.030;25.108;2023-10-31T02:45:51;99443.16;;;7.46;73.28
21960;BME280;11144;43.030;25.108;2023-10-31T02:47:25;99433.69;;;7.44;74.01
21960;BME280;11144;43.030;25.108;2023-10-31T02:48:58;99432.75;;;7.46;73.60
21960;BME280;11144;43.030;25.108;2023-10-31T02:50:31;99414.44;;;7.37;73.34
21960;BME280;11144;43.030;25.108;2023-10-31T02:52:03;99445.63;;;7.47;73.94
21960;BME280;11144;43.030;25.108;2023-10-31T02:53:38;99442.00;;;7.48;73.53
21960;BME280;11144;43.030;25.108;2023-10-31T02:55:10;99445.63;;;7.47;73.17
21960;BME280;11144;43.030;25.108;2023-10-31T02:56:43;99419.34;;;7.40;73.35
21960;BME280;11144;43.030;25.108;2023-10-31T02:58:16;99437.44;;;7.50;73.35
21960;BME280;11144;43.030;25.108;2023-10-31T02:59:49;99435.19;;;7.47;73.41
21960;BME280;11144;43.030;25.108;2023-10-31T03:01:21;99442.00;;;7.48;73.13
21960;BME280;11144;43.030;25.108;2023-10-31T03:02:54;99452.44;;;7.48;73.33
21960;BME280;11144;43.030;25.108;2023-10-31T03:04:27;99453.59;;;7.46;73.03
21960;BME280;11144;43.030;25.108;2023-10-31T03:06:01;99445.91;;;7.44;73.03
21960;BME280;11144;43.030;25.108;2023-10-31T03:07:33;99450.13;;;7.37;72.78
21960;BME280;11144;43.030;25.108;2023-10-31T03:09:08;99442.44;;;7.27;73.31
21960;BME280;11144;43.030;25.108;2023-10-31T03:10:41;99441.59;;;7.19;73.14
21960;BME280;11144;43.030;25.108;2023-10-31T03:12:14;99451.50;;;7.15;73.45
21960;BME280;11144;43.030;25.108;2023-10-31T03:13:46;99442.53;;;7.10;73.55
21960;BME280;11144;43.030;25.108;2023-10-31T03:15:20;99438.75;;;7.04;73.55
21960;BME280;11144;43.030;25.108;2023-10-31T03:16:53;99441.19;;;7.06;73.60
21960;BME280;11144;43.030;25.108;2023-10-31T03:18:26;99443.13;;;7.04;73.84
21960;BME280;11144;43.030;25.108;2023-10-31T03:19:58;99443.31;;;7.02;73.90
21960;BME280;11144;43.030;25.108;2023-10-31T03:21:32;99440.53;;;7.04;73.64
21960;BME280;11144;43.030;25.108;2023-10-31T03:23:04;99435.97;;;7.06;73.62
21960;BME280;11144;43.030;25.108;2023-10-31T03:24:39;99440.88;;;7.09;73.59
21960;BME280;11144;43.030;25.108;2023-10-31T03:26:11;99438.63;;;7.14;73.77
21960;BME280;11144;43.030;25.108;2023-10-31T03:27:45;99437.66;;;7.15;73.47
21960;BME280;11144;43.030;25.108;2023-10-31T03:29:18;99440.13;;;7.16;73.56
21960;BME280;11144;43.030;25.108;2023-10-31T03:30:51;99406.63;;;6.96;73.47
21960;BME280;11144;43.030;25.108;2023-10-31T03:32:24;99440.91;;;7.17;73.52
21960;BME280;11144;43.030;25.108;2023-10-31T03:33:57;99438.31;;;7.17;74.18
21960;BME280;11144;43.030;25.108;2023-10-31T03:35:29;99438.31;;;7.17;73.42
21960;BME280;11144;43.030;25.108;2023-10-31T03:37:04;99432.13;;;7.10;73.30
21960;BME280;11144;43.030;25.108;2023-10-31T03:38:36;99441.88;;;7.08;73.03
21960;BME280;11144;43.030;25.108;2023-10-31T03:40:11;99432.22;;;7.00;73.02
21960;BME280;11144;43.030;25.108;2023-10-31T03:41:44;99425.81;;;6.95;72.92
21960;BME280;11144;43.030;25.108;2023-10-31T03:43:18;99433.34;;;6.98;72.93
21960;BME280;11144;43.030;25.108;2023-10-31T03:44:51;99441.78;;;6.92;72.88
21960;BME280;11144;43.030;25.108;2023-10-31T03:46:24;99420.50;;;6.70;72.82
21960;BME280;11144;43.030;25.108;2023-10-31T03:47:56;99436.81;;;6.73;73.18
21960;BME280;11144;43.030;25.108;2023-10-31T03:49:30;99439.81;;;6.60;73.22
21960;BME280;11144;43.030;25.108;2023-10-31T03:51:02;99437.97;;;6.52;73.46
21960;BME280;11144;43.030;25.108;2023-10-31T03:52:35;99442.38;;;6.52;73.58
21960;BME280;11144;43.030;25.108;2023-10-31T03:54:08;99436.03;;;6.54;73.88
21960;BME280;11144;43.030;25.108;2023-10-31T03:55:43;99430.47;;;6.49;73.65
21960;BME280;11144;43.030;25.108;2023-10-31T03:57:15;99445.91;;;6.51;73.72
21960;BME280;11144;43.030;25.108;2023-10-31T03:58:48;99438.28;;;6.49;73.72
21960;BME280;11144;43.030;25.108;2023-10-31T04:00:21;99439.91;;;6.50;73.83
21960;BME280;11144;43.030;25.108;2023-10-31T04:01:55;99443.53;;;6.57;73.72
21960;BME280;11144;43.030;25.108;2023-10-31T04:03:28;99451.88;;;6.61;73.89
21960;BME280;11144;43.030;25.108;2023-10-31T04:05:00;99450.09;;;6.61;73.86
21960;BME280;11144;43.030;25.108;2023-10-31T04:06:34;99445.84;;;6.60;73.99
21960;BME280;11144;43.030;25.108;2023-10-31T04:08:11;99449.41;;;6.59;73.90
21960;BME280;11144;43.030;25.108;2023-10-31T04:09:43;99440.25;;;6.55;73.92
21960;BME280;11144;43.030;25.108;2023-10-31T04:11:18;99448.72;;;6.57;74.02
21960;BME280;11144;43.030;25.108;2023-10-31T04:12:50;99446.44;;;6.54;74.18
21960;BME280;11144;43.030;25.108;2023-10-31T04:14:24;99436.63;;;6.48;74.22
21960;BME280;11144;43.030;25.108;2023-10-31T04:15:56;99440.88;;;6.49;74.44
21960;BME280;11144;43.030;25.108;2023-10-31T04:17:29;99428.97;;;6.47;74.28
21960;BME280;11144;43.030;25.108;2023-10-31T04:19:02;99442.19;;;6.53;74.46
21960;BME280;11144;43.030;25.108;2023-10-31T04:20:35;99437.97;;;6.52;74.11
21960;BME280;11144;43.030;25.108;2023-10-31T04:22:08;99443.31;;;6.51;74.44
21960;BME280;11144;43.030;25.108;2023-10-31T04:23:41;99433.34;;;6.46;74.41
21960;BME280;11144;43.030;25.108;2023-10-31T04:25:14;99428.16;;;6.46;74.14
21960;BME280;11144;43.030;25.108;2023-10-31T04:26:48;99440.25;;;6.55;73.88
21960;BME280;11144;43.030;25.108;2023-10-31T04:28:22;99442.19;;;6.53;73.86
21960;BME280;11144;43.030;25.108;2023-10-31T04:29:54;99435.38;;;6.52;73.97
21960;BME280;11144;43.030;25.108;2023-10-31T04:31:27;99444.50;;;6.56;73.82
21960;BME280;11144;43.030;25.108;2023-10-31T04:33:12;99438.78;;;6.53;73.86
21960;BME280;11144;43.030;25.108;2023-10-31T04:34:45;99432.78;;;6.52;74.11
21960;BME280;11144;43.030;25.108;2023-10-31T04:36:18;99427.34;;;6.46;74.37
21960;BME280;11144;43.030;25.108;2023-10-31T04:37:51;99434.72;;;6.50;74.26
21960;BME280;11144;43.030;25.108;2023-10-31T04:39:24;99432.25;;;6.49;74.31
21960;BME280;11144;43.030;25.108;2023-10-31T04:40:56;99431.41;;;6.48;74.35
21960;BME280;11144;43.030;25.108;2023-10-31T04:42:31;99433.34;;;6.46;74.33
21960;BME280;11144;43.030;25.108;2023-10-31T04:44:04;99406.03;;;6.25;74.13
21960;BME280;11144;43.030;25.108;2023-10-31T04:45:38;99430.78;;;6.29;74.40
21960;BME280;11144;43.030;25.108;2023-10-31T04:47:11;99426.47;;;6.20;74.64
21960;BME280;11144;43.030;25.108;2023-10-31T04:48:43;99424.31;;;6.15;74.65
21960;BME280;11144;43.030;25.108;2023-10-31T04:50:17;99431.19;;;6.16;74.51
21960;BME280;11144;43.030;25.108;2023-10-31T04:51:49;99431.19;;;6.16;74.81
21960;BME280;11144;43.030;25.108;2023-10-31T04:53:22;99426.81;;;6.17;74.52
21960;BME280;11144;43.030;25.108;2023-10-31T04:54:55;99424.94;;;6.09;74.79
21960;BME280;11144;43.030;25.108;2023-10-31T04:56:28;99434.75;;;6.15;74.65
21960;BME280;11144;43.030;25.108;2023-10-31T04:58:02;99430.91;;;6.19;74.71
21960;BME280;11144;43.030;25.108;2023-10-31T04:59:35;99427.97;;;6.22;74.69
21960;BME280;11144;43.030;25.108;2023-10-31T05:01:08;99431.56;;;6.21;74.56
21960;BME280;11144;43.030;25.108;2023-10-31T05:02:41;99427.91;;;6.14;74.70
21960;BME280;11144;43.030;25.108;2023-10-31T05:04:14;99423.75;;;6.21;74.99
21960;BME280;11144;43.030;25.108;2023-10-31T05:05:47;99420.38;;;6.29;74.98
21960;BME280;11144;43.030;25.108;2023-10-31T05:07:20;99424.16;;;6.34;74.73
21960;BME280;11144;43.030;25.108;2023-10-31T05:08:53;99427.16;;;6.39;74.72
21960;BME280;11144;43.030;25.108;2023-10-31T05:10:26;99421.63;;;6.42;74.90
21960;BME280;11144;43.030;25.108;2023-10-31T05:11:59;99414.00;;;6.49;74.64
21960;BME280;11144;43.030;25.108;2023-10-31T05:13:33;99421.53;;;6.52;74.25
21960;BME280;11144;43.030;25.108;2023-10-31T05:15:07;99412.06;;;6.51;74.27
21960;BME280;11144;43.030;25.108;2023-10-31T05:16:41;99417.94;;;6.53;73.64
21960;BME280;11144;43.030;25.108;2023-10-31T05:18:14;99410.28;;;6.51;73.68
21960;BME280;11144;43.030;25.108;2023-10-31T05:19:47;99412.88;;;6.51;73.82
21960;BME280;11144;43.030;25.108;2023-10-31T05:21:21;99416.63;;;6.49;74.04
21960;BME280;11144;43.030;25.108;2023-10-31T05:22:53;99413.34;;;6.47;74.00
21960;BME280;11144;43.030;25.108;2023-10-31T05:24:26;99406.06;;;6.50;74.09
21960;BME280;11144;43.030;25.108;2023-10-31T05:25:59;99409.81;;;6.56;74.01
21960;BME280;11144;43.030;25.108;2023-10-31T05:27:32;99409.22;;;6.62;73.98
21960;BME280;11144;43.030;25.108;2023-10-31T05:29:07;99403.41;;;6.68;73.89
21960;BME280;11144;43.030;25.108;2023-10-31T05:30:40;99401.28;;;6.72;73.75
21960;BME280;11144;43.030;25.108;2023-10-31T05:32:14;99394.78;;;6.76;73.97
21960;BME280;11144;43.030;25.108;2023-10-31T05:33:46;99408.19;;;6.81;73.95
21960;BME280;11144;43.030;25.108;2023-10-31T05:35:20;99409.50;;;6.85;73.97
21960;BME280;11144;43.030;25.108;2023-10-31T05:36:52;99405.59;;;6.89;73.83
21960;BME280;11144;43.030;25.108;2023-10-31T05:38:26;99413.13;;;6.92;73.81
21960;BME280;11144;43.030;25.108;2023-10-31T05:39:58;99411.19;;;6.94;73.77
21960;BME280;11144;43.030;25.108;2023-10-31T05:41:34;99409.53;;;6.93;73.68
21960;BME280;11144;43.030;25.108;2023-10-31T05:43:07;99409.53;;;6.93;73.77
21960;BME280;11144;43.030;25.108;2023-10-31T05:44:42;99402.69;;;6.92;73.70
21960;BME280;11144;43.030;25.108;2023-10-31T05:46:14;99414.63;;;7.02;73.76
21960;BME280;11144;43.030;25.108;2023-10-31T05:47:47;99413.34;;;7.06;73.47
21960;BME280;11144;43.030;25.108;2023-10-31T05:49:20;99405.06;;;7.11;73.64
21960;BME280;11144;43.030;25.108;2023-10-31T05:50:53;99416.78;;;7.15;73.34
21960;BME280;11144;43.030;25.108;2023-10-31T05:52:27;99423.50;;;7.17;73.33
21960;BME280;11144;43.030;25.108;2023-10-31T05:54:02;99431.19;;;7.19;73.37
21960;BME280;11144;43.030;25.108;2023-10-31T05:55:34;99427.28;;;7.23;73.28
21960;BME280;11144;43.030;25.108;2023-10-31T05:57:07;99436.25;;;7.28;73.28
21960;BME280;11144;43.030;25.108;2023-10-31T05:58:40;99427.94;;;7.33;73.16
21960;BME280;11144;43.030;25.108;2023-10-31T06:00:16;99429.91;;;7.39;72.99
21960;BME280;11144;43.030;25.108;2023-10-31T06:01:49;99430.25;;;7.44;72.96
21960;BME280;11144;43.030;25.108;2023-10-31T06:03:22;99428.66;;;7.51;72.75
21960;BME280;11144;43.030;25.108;2023-10-31T06:04:55;99431.09;;;7.53;72.69
21960;BME280;11144;43.030;25.108;2023-10-31T06:06:31;99430.63;;;7.57;72.82
21960;BME280;11144;43.030;25.108;2023-10-31T06:08:03;99436.50;;;7.59;72.91
21960;BME280;11144;43.030;25.108;2023-10-31T06:09:37;99437.38;;;7.68;72.89
21960;BME280;11144;43.030;25.108;2023-10-31T06:11:10;99435.59;;;7.76;72.69
21960;BME280;11144;43.030;25.108;2023-10-31T06:12:45;99447.66;;;7.85;72.72
21960;BME280;11144;43.030;25.108;2023-10-31T06:14:18;99439.50;;;7.88;72.92
21960;BME280;11144;43.030;25.108;2023-10-31T06:15:52;99442.13;;;7.96;72.94
21960;BME280;11144;43.030;25.108;2023-10-31T06:17:27;99440.00;;;8.08;72.98
21960;BME280;11144;43.030;25.108;2023-10-31T06:19:02;99438.75;;;8.28;73.70
21960;BME280;11144;43.030;25.108;2023-10-31T06:20:34;99437.88;;;8.68;74.49
21960;BME280;11144;43.030;25.108;2023-10-31T06:22:08;99436.59;;;9.19;75.45
21960;BME280;11144;43.030;25.108;2023-10-31T06:23:41;99421.47;;;9.68;75.29
21960;BME280;11144;43.030;25.108;2023-10-31T06:25:14;99433.59;;;10.36;74.91
21960;BME280;11144;43.030;25.108;2023-10-31T06:26:47;99426.81;;;10.94;74.93
21960;BME280;11144;43.030;25.108;2023-10-31T06:28:20;99428.69;;;11.44;73.59
21960;BME280;11144;43.030;25.108;2023-10-31T06:29:53;99420.53;;;11.89;72.79
21960;BME280;11144;43.030;25.108;2023-10-31T06:31:48;99417.75;;;12.39;71.46
21960;BME280;11144;43.030;25.108;2023-10-31T06:33:22;99417.34;;;12.70;69.43
21960;BME280;11144;43.030;25.108;2023-10-31T06:34:55;99416.31;;;12.99;69.27
21960;BME280;11144;43.030;25.108;2023-10-31T06:36:28;99417.66;;;13.16;68.33
21960;BME280;11144;43.030;25.108;2023-10-31T06:38:01;99420.03;;;13.45;68.20
21960;BME280;11144;43.030;25.108;2023-10-31T06:39:34;99424.16;;;13.67;68.60
21960;BME280;11144;43.030;25.108;2023-10-31T06:41:07;99429.50;;;13.93;67.62
21960;BME280;11144;43.030;25.108;2023-10-31T06:42:39;99430.34;;;14.27;68.39
21960;BME280;11144;43.030;25.108;2023-10-31T06:44:13;99423.06;;;14.42;66.42
21960;BME280;11144;43.030;25.108;2023-10-31T06:45:46;99426.91;;;14.65;63.76
21960;BME280;11144;43.030;25.108;2023-10-31T06:47:20;99434.19;;;14.83;64.91
21960;BME280;11144;43.030;25.108;2023-10-31T06:48:53;99420.59;;;14.86;65.50
21960;BME280;11144;43.030;25.108;2023-10-31T06:50:26;99426.97;;;15.23;64.84
21960;BME280;11144;43.030;25.108;2023-10-31T06:51:59;99428.75;;;15.48;61.00
21960;BME280;11144;43.030;25.108;2023-10-31T06:53:32;99429.22;;;15.77;63.26
21960;BME280;11144;43.030;25.108;2023-10-31T06:55:05;99426.94;;;16.18;63.03
21960;BME280;11144;43.030;25.108;2023-10-31T06:56:38;99431.16;;;16.57;62.32
21960;BME280;11144;43.030;25.108;2023-10-31T06:58:11;99417.88;;;17.00;60.36
21960;BME280;11144;43.030;25.108;2023-10-31T06:59:45;99418.47;;;17.20;59.26
21960;BME280;11144;43.030;25.108;2023-10-31T07:01:18;99406.63;;;17.22;57.83
21960;BME280;11144;43.030;25.108;2023-10-31T07:02:53;99417.81;;;17.42;58.41
21960;BME280;11144;43.030;25.108;2023-10-31T07:04:25;99411.13;;;17.58;57.88
21960;BME280;11144;43.030;25.108;2023-10-31T07:05:59;99404.09;;;17.63;57.13
21960;BME280;11144;43.030;25.108;2023-10-31T07:07:31;99401.69;;;17.62;56.00
21960;BME280;11144;43.030;25.108;2023-10-31T07:09:04;99412.59;;;17.54;56.84
21960;BME280;11144;43.030;25.108;2023-10-31T07:10:37;99407.31;;;17.54;56.25
21960;BME280;11144;43.030;25.108;2023-10-31T07:12:10;99398.97;;;17.80;55.80
21960;BME280;11144;43.030;25.108;2023-10-31T07:13:43;99396.97;;;17.94;55.22
21960;BME280;11144;43.030;25.108;2023-10-31T07:15:16;99392.38;;;18.12;54.88
21960;BME280;11144;43.030;25.108;2023-10-31T07:16:49;99396.69;;;18.25;55.87
21960;BME280;11144;43.030;25.108;2023-10-31T07:18:23;99389.19;;;18.33;54.72
21960;BME280;11144;43.030;25.108;2023-10-31T07:19:56;99388.06;;;18.53;52.64
21960;BME280;11144;43.030;25.108;2023-10-31T07:21:29;99380.22;;;18.58;53.60
21960;BME280;11144;43.030;25.108;2023-10-31T07:23:02;99383.78;;;18.86;52.69
21960;BME280;11144;43.030;25.108;2023-10-31T07:24:35;99374.28;;;19.13;53.81
21960;BME280;11144;43.030;25.108;2023-10-31T07:26:09;99374.59;;;19.17;52.19
21960;BME280;11144;43.030;25.108;2023-10-31T07:27:42;99376.22;;;19.18;53.60
21960;BME280;11144;43.030;25.108;2023-10-31T07:29:15;99374.78;;;19.27;52.18
21960;BME280;11144;43.030;25.108;2023-10-31T07:30:48;99375.22;;;19.47;51.83
21960;BME280;11144;43.030;25.108;2023-10-31T07:32:22;99375.03;;;19.37;53.41
21960;BME280;11144;43.030;25.108;2023-10-31T07:33:55;99377.31;;;19.45;52.60
21960;BME280;11144;43.030;25.108;2023-10-31T07:35:29;99372.06;;;19.62;51.31
21960;BME280;11144;43.030;25.108;2023-10-31T07:37:01;99368.91;;;19.65;51.56
21960;BME280;11144;43.030;25.108;2023-10-31T07:38:34;99372.94;;;19.96;52.15
21960;BME280;11144;43.030;25.108;2023-10-31T07:40:09;99373.84;;;20.18;49.79
21960;BME280;11144;43.030;25.108;2023-10-31T07:41:42;99369.78;;;20.15;51.17
21960;BME280;11144;43.030;25.108;2023-10-31T07:43:15;99368.38;;;20.24;49.57
21960;BME280;11144;43.030;25.108;2023-10-31T07:44:49;99368.78;;;20.05;50.33
21960;BME280;11144;43.030;25.108;2023-10-31T07:46:22;99356.81;;;20.19;49.92
21960;BME280;11144;43.030;25.108;2023-10-31T07:47:56;99362.06;;;20.47;49.71
21960;BME280;11144;43.030;25.108;2023-10-31T07:49:30;99352.03;;;20.71;49.51
21960;BME280;11144;43.030;25.108;2023-10-31T07:51:04;99361.44;;;20.78;49.17
21960;BME280;11144;43.030;25.108;2023-10-31T07:52:37;99351.72;;;20.89;48.81
21960;BME280;11144;43.030;25.108;2023-10-31T07:54:09;99348.56;;;21.08;48.63
21960;BME280;11144;43.030;25.108;2023-10-31T07:55:43;99347.22;;;21.11;47.00
21960;BME280;11144;43.030;25.108;2023-10-31T07:57:15;99339.09;;;21.01;47.84
21960;BME280;11144;43.030;25.108;2023-10-31T07:58:48;99338.81;;;21.19;47.91
21960;BME280;11144;43.030;25.108;2023-10-31T08:00:21;99326.53;;;21.45;47.32
21960;BME280;11144;43.030;25.108;2023-10-31T08:01:54;99326.94;;;21.58;46.04
21960;BME280;11144;43.030;25.108;2023-10-31T08:03:27;99321.91;;;21.62;46.10
21960;BME280;11144;43.030;25.108;2023-10-31T08:05:02;99315.06;;;21.71;46.69
21960;BME280;11144;43.030;25.108;2023-10-31T08:06:34;99321.47;;;21.96;45.33
21960;BME280;11144;43.030;25.108;2023-10-31T08:08:08;99304.75;;;22.11;45.56
21960;BME280;11144;43.030;25.108;2023-10-31T08:09:40;99310.34;;;22.51;44.96
21960;BME280;11144;43.030;25.108;2023-10-31T08:11:13;99307.06;;;22.76;43.70
21960;BME280;11144;43.030;25.108;2023-10-31T08:12:46;99300.72;;;22.97;44.27